sensor_id;sensor_type;location;lat;lon;timestamp;pressure;altitude;pressure_sealevel;temperature;humidity
71976;BME280;68326;52.124;5.424;2023-11-21T00:02:17;101075.38;;;8.01;95.36
71976;BME280;68326;52.124;5.424;2023-11-21T00:04:43;101070.41;;;7.94;95.63
71976;BME280;68326;52.124;5.424;2023-11-21T00:07:10;101069.69;;;7.91;94.87
71976;BME280;68326;52.124;5.424;2023-11-21T00:09:36;101082.06;;;7.83;94.76
71976;BME280;68326;52.124;5.424;2023-11-21T00:12:03;101080.56;;;7.75;94.82
71976;BME280;68326;52.124;5.424;2023-11-21T00:14:30;101088.56;;;7.69;94.15
71976;BME280;68326;52.124;5.424;2023-11-21T00:16:57;101083.47;;;7.66;94.69
71976;BME280;68326;52.124;5.424;2023-11-21T00:19:25;101084.41;;;7.65;94.96
71976;BME280;68326;52.124;5.424;2023-11-21T00:21:52;101089.63;;;7.64;94.98
71976;BME280;68326;52.124;5.424;2023-11-21T00:24:18;101087.81;;;7.66;95.38
71976;BME280;68326;52.124;5.424;2023-11-21T00:26:44;101084.22;;;7.70;95.26
71976;BME280;68326;52.124;5.424;2023-11-21T00:29:11;101092.00;;;7.70;95.58
71976;BME280;68326;52.124;5.424;2023-11-21T00:31:37;101091.00;;;7.74;96.14
71976;BME280;68326;52.124;5.424;2023-11-21T00:34:05;101094.47;;;7.73;95.49
71976;BME280;68326;52.124;5.424;2023-11-21T00:36:31;101091.97;;;7.71;96.02
71976;BME280;68326;52.124;5.424;2023-11-21T00:38:58;101100.44;;;7.75;96.41
71976;BME280;68326;52.124;5.424;2023-11-21T00:41:25;101090.03;;;7.76;96.35
71976;BME280;68326;52.124;5.424;2023-11-21T00:43:55;101094.19;;;7.82;96.74
71976;BME280;68326;52.124;5.424;2023-11-21T00:46:21;101097.56;;;7.84;96.23
71976;BME280;68326;52.124;5.424;2023-11-21T00:48:48;101094.09;;;7.84;96.64
71976;BME280;68326;52.124;5.424;2023-11-21T00:51:14;101095.06;;;7.81;95.77
71976;BME280;68326;52.124;5.424;2023-11-21T00:53:41;101108.19;;;7.76;96.07
71976;BME280;68326;52.124;5.424;2023-11-21T00:56:08;101106.59;;;7.72;95.81
71976;BME280;68326;52.124;5.424;2023-11-21T00:58:34;101113.44;;;7.73;96.31
71976;BME280;68326;52.124;5.424;2023-11-21T01:01:01;101116.81;;;7.75;96.11
71976;BME280;68326;52.124;5.424;2023-11-21T01:03:29;101121.34;;;7.70;96.02
71976;BME280;68326;52.124;5.424;2023-11-21T01:05:56;101125.09;;;7.62;96.03
71976;BME280;68326;52.124;5.424;2023-11-21T01:08:23;101123.53;;;7.56;95.42
71976;BME280;68326;52.124;5.424;2023-11-21T01:10:50;101127.13;;;7.52;96.27
71976;BME280;68326;52.124;5.424;2023-11-21T01:13:17;101128.03;;;7.51;95.80
71976;BME280;68326;52.124;5.424;2023-11-21T01:15:44;101136.69;;;7.50;95.91
71976;BME280;68326;52.124;5.424;2023-11-21T01:18:11;101129.72;;;7.52;96.30
71976;BME280;68326;52.124;5.424;2023-11-21T01:20:37;101139.06;;;7.56;96.45
71976;BME280;68326;52.124;5.424;2023-11-21T01:23:04;101129.59;;;7.57;95.74
71976;BME280;68326;52.124;5.424;2023-11-21T01:25:31;101131.38;;;7.54;95.91
71976;BME280;68326;52.124;5.424;2023-11-21T01:27:57;101126.28;;;7.51;96.10
71976;BME280;68326;52.124;5.424;2023-11-21T01:30:24;101128.91;;;7.50;96.15
71976;BME280;68326;52.124;5.424;2023-11-21T01:32:51;101127.31;;;7.46;96.03
71976;BME280;68326;52.124;5.424;2023-11-21T01:35:18;101132.50;;;7.46;96.30
71976;BME280;68326;52.124;5.424;2023-11-21T01:37:45;101133.44;;;7.43;96.48
71976;BME280;68326;52.124;5.424;2023-11-21T01:40:12;101145.50;;;7.44;96.35
71976;BME280;68326;52.124;5.424;2023-11-21T01:42:41;101140.25;;;7.46;96.44
71976;BME280;68326;52.124;5.424;2023-11-21T01:45:10;101141.94;;;7.48;96.48
71976;BME280;68326;52.124;5.424;2023-11-21T01:47:40;101146.13;;;7.52;96.75
71976;BME280;68326;52.124;5.424;2023-11-21T01:50:08;101152.28;;;7.48;96.54
71976;BME280;68326;52.124;5.424;2023-11-21T01:52:38;101147.03;;;7.50;96.44
71976;BME280;68326;52.124;5.424;2023-11-21T01:55:07;101152.09;;;7.54;97.32
71976;BME280;68326;52.124;5.424;2023-11-21T01:57:45;101144.97;;;7.61;96.98
71976;BME280;68326;52.124;5.424;2023-11-21T02:00:12;101152.56;;;7.66;97.94
71976;BME280;68326;52.124;5.424;2023-11-21T02:02:43;101156.72;;;7.71;97.28
71976;BME280;68326;52.124;5.424;2023-11-21T02:05:11;101157.56;;;7.72;97.47
71976;BME280;68326;52.124;5.424;2023-11-21T02:07:39;101157.34;;;7.78;98.17
71976;BME280;68326;52.124;5.424;2023-11-21T02:10:07;101166.59;;;7.85;98.25
71976;BME280;68326;52.124;5.424;2023-11-21T02:12:34;101178.59;;;7.88;98.57
71976;BME280;68326;52.124;5.424;2023-11-21T02:15:05;101177.34;;;8.00;99.27
71976;BME280;68326;52.124;5.424;2023-11-21T02:17:42;101183.13;;;8.08;99.10
71976;BME280;68326;52.124;5.424;2023-11-21T02:20:13;101183.84;;;8.11;99.24
71976;BME280;68326;52.124;5.424;2023-11-21T02:22:50;101179.22;;;8.20;99.23
71976;BME280;68326;52.124;5.424;2023-11-21T02:25:16;101182.53;;;8.25;99.16
71976;BME280;68326;52.124;5.424;2023-11-21T02:27:44;101185.00;;;8.28;99.19
71976;BME280;68326;52.124;5.424;2023-11-21T02:30:15;101180.56;;;8.31;99.52
71976;BME280;68326;52.124;5.424;2023-11-21T02:32:42;101184.75;;;8.35;99.89
71976;BME280;68326;52.124;5.424;2023-11-21T02:35:15;101185.44;;;8.41;99.55
71976;BME280;68326;52.124;5.424;2023-11-21T02:37:42;101183.59;;;8.44;99.85
71976;BME280;68326;52.124;5.424;2023-11-21T02:40:10;101185.19;;;8.48;99.77
71976;BME280;68326;52.124;5.424;2023-11-21T02:42:41;101189.34;;;8.52;99.85
71976;BME280;68326;52.124;5.424;2023-11-21T02:45:08;101191.03;;;8.53;99.71
71976;BME280;68326;52.124;5.424;2023-11-21T02:47:35;101196.13;;;8.56;100.00
71976;BME280;68326;52.124;5.424;2023-11-21T02:50:01;101189.91;;;8.61;99.77
71976;BME280;68326;52.124;5.424;2023-11-21T02:52:28;101187.38;;;8.59;99.23
71976;BME280;68326;52.124;5.424;2023-11-21T02:54:54;101196.91;;;8.59;99.55
71976;BME280;68326;52.124;5.424;2023-11-21T02:57:21;101189.75;;;8.65;99.89
71976;BME280;68326;52.124;5.424;2023-11-21T02:59:47;101189.53;;;8.71;100.00
71976;BME280;68326;52.124;5.424;2023-11-21T03:02:14;101189.44;;;8.73;99.92
71976;BME280;68326;52.124;5.424;2023-11-21T03:04:42;101185.88;;;8.75;100.00
71976;BME280;68326;52.124;5.424;2023-11-21T03:07:09;101191.81;;;8.79;100.00
71976;BME280;68326;52.124;5.424;2023-11-21T03:09:35;101196.72;;;8.87;100.00
71976;BME280;68326;52.124;5.424;2023-11-21T03:12:02;101198.34;;;8.89;100.00
71976;BME280;68326;52.124;5.424;2023-11-21T03:14:29;101191.22;;;8.94;100.00
71976;BME280;68326;52.124;5.424;2023-11-21T03:16:55;101182.56;;;8.95;100.00
71976;BME280;68326;52.124;5.424;2023-11-21T03:19:23;101194.47;;;9.01;100.00
71976;BME280;68326;52.124;5.424;2023-11-21T03:21:50;101193.50;;;9.04;100.00
71976;BME280;68326;52.124;5.424;2023-11-21T03:24:19;101197.66;;;9.08;100.00
71976;BME280;68326;52.124;5.424;2023-11-21T03:26:46;101194.19;;;9.07;100.00
71976;BME280;68326;52.124;5.424;2023-11-21T03:29:17;101190.78;;;9.07;100.00
71976;BME280;68326;52.124;5.424;2023-11-21T03:31:43;101189.69;;;9.12;100.00
71976;BME280;68326;52.124;5.424;2023-11-21T03:34:15;101193.91;;;9.15;100.00
71976;BME280;68326;52.124;5.424;2023-11-21T03:36:43;101200.19;;;9.09;100.00
71976;BME280;68326;52.124;5.424;2023-11-21T03:39:09;101202.91;;;9.06;100.00
71976;BME280;68326;52.124;5.424;2023-11-21T03:41:36;101211.44;;;9.10;100.00
71976;BME280;68326;52.124;5.424;2023-11-21T03:44:03;101205.28;;;9.12;100.00
71976;BME280;68326;52.124;5.424;2023-11-21T03:46:29;101209.41;;;9.18;100.00
71976;BME280;68326;52.124;5.424;2023-11-21T03:48:56;101206.66;;;9.21;100.00
71976;BME280;68326;52.124;5.424;2023-11-21T03:51:22;101203.09;;;9.24;100.00
71976;BME280;68326;52.124;5.424;2023-11-21T03:53:48;101209.81;;;9.29;100.00
71976;BME280;68326;52.124;5.424;2023-11-21T03:56:15;101218.34;;;9.33;100.00
71976;BME280;68326;52.124;5.424;2023-11-21T03:58:42;101218.34;;;9.33;100.00
71976;BME280;68326;52.124;5.424;2023-11-21T04:01:08;101226.06;;;9.34;100.00
71976;BME280;68326;52.124;5.424;2023-11-21T04:03:35;101223.41;;;9.36;100.00
71976;BME280;68326;52.124;5.424;2023-11-21T04:06:02;101237.13;;;9.39;100.00
71976;BME280;68326;52.124;5.424;2023-11-21T04:08:28;101225.81;;;9.41;100.00
71976;BME280;68326;52.124;5.424;2023-11-21T04:10:55;101233.59;;;9.41;100.00
71976;BME280;68326;52.124;5.424;2023-11-21T04:13:22;101235.19;;;9.45;100.00
71976;BME280;68326;52.124;5.424;2023-11-21T04:15:48;101234.28;;;9.46;100.00
71976;BME280;68326;52.124;5.424;2023-11-21T04:18:15;101247.19;;;9.47;100.00
71976;BME280;68326;52.124;5.424;2023-11-21T04:20:41;101248.75;;;9.51;100.00
71976;BME280;68326;52.124;5.424;2023-11-21T04:23:08;101249.50;;;9.55;100.00
71976;BME280;68326;52.124;5.424;2023-11-21T04:25:36;101254.56;;;9.58;100.00
71976;BME280;68326;52.124;5.424;2023-11-21T04:28:03;101257.91;;;9.62;100.00
71976;BME280;68326;52.124;5.424;2023-11-21T04:30:31;101261.41;;;9.61;100.00
71976;BME280;68326;52.124;5.424;2023-11-21T04:32:59;101257.94;;;9.60;100.00
71976;BME280;68326;52.124;5.424;2023-11-21T04:35:25;101265.69;;;9.62;100.00
71976;BME280;68326;52.124;5.424;2023-11-21T04:37:51;101265.75;;;9.60;100.00
71976;BME280;68326;52.124;5.424;2023-11-21T04:40:18;101275.94;;;9.65;100.00
71976;BME280;68326;52.124;5.424;2023-11-21T04:42:47;101278.53;;;9.65;100.00
71976;BME280;68326;52.124;5.424;2023-11-21T04:45:13;101281.88;;;9.68;100.00
71976;BME280;68326;52.124;5.424;2023-11-21T04:47:40;101280.13;;;9.69;100.00
71976;BME280;68326;52.124;5.424;2023-11-21T04:50:06;101289.72;;;9.67;100.00
71976;BME280;68326;52.124;5.424;2023-11-21T04:52:33;101291.63;;;9.63;100.00
71976;BME280;68326;52.124;5.424;2023-11-21T04:55:00;101289.22;;;9.58;100.00
71976;BME280;68326;52.124;5.424;2023-11-21T04:57:28;101282.34;;;9.56;100.00
71976;BME280;68326;52.124;5.424;2023-11-21T04:59:54;101278.09;;;9.55;100.00
71976;BME280;68326;52.124;5.424;2023-11-21T05:02:21;101283.22;;;9.56;100.00
71976;BME280;68326;52.124;5.424;2023-11-21T05:05:01;101288.34;;;9.58;100.00
71976;BME280;68326;52.124;5.424;2023-11-21T05:07:28;101290.00;;;9.61;100.00
71976;BME280;68326;52.124;5.424;2023-11-21T05:09:57;101302.06;;;9.62;100.00
71976;BME280;68326;52.124;5.424;2023-11-21T05:12:24;101291.69;;;9.62;100.00
71976;BME280;68326;52.124;5.424;2023-11-21T05:14:51;101296.81;;;9.63;100.00
71976;BME280;68326;52.124;5.424;2023-11-21T05:17:17;101306.25;;;9.66;100.00
71976;BME280;68326;52.124;5.424;2023-11-21T05:19:44;101303.50;;;9.69;100.00
71976;BME280;68326;52.124;5.424;2023-11-21T05:22:15;101306.91;;;9.71;100.00
71976;BME280;68326;52.124;5.424;2023-11-21T05:24:41;101311.16;;;9.73;100.00
71976;BME280;68326;52.124;5.424;2023-11-21T05:27:08;101317.88;;;9.77;100.00
71976;BME280;68326;52.124;5.424;2023-11-21T05:29:35;101310.78;;;9.83;100.00
71976;BME280;68326;52.124;5.424;2023-11-21T05:32:04;101314.22;;;9.83;100.00
71976;BME280;68326;52.124;5.424;2023-11-21T05:34:31;101313.31;;;9.84;100.00
71976;BME280;68326;52.124;5.424;2023-11-21T05:36:57;101316.03;;;9.81;100.00
71976;BME280;68326;52.124;5.424;2023-11-21T05:39:25;101321.16;;;9.83;100.00
71976;BME280;68326;52.124;5.424;2023-11-21T05:41:51;101313.38;;;9.83;100.00
71976;BME280;68326;52.124;5.424;2023-11-21T05:44:18;101321.81;;;9.88;100.00
71976;BME280;68326;52.124;5.424;2023-11-21T05:46:44;101330.34;;;9.91;100.00
71976;BME280;68326;52.124;5.424;2023-11-21T05:49:11;101332.97;;;9.91;100.00
71976;BME280;68326;52.124;5.424;2023-11-21T05:51:38;101332.91;;;9.93;100.00
71976;BME280;68326;52.124;5.424;2023-11-21T05:54:05;101338.94;;;9.93;100.00
71976;BME280;68326;52.124;5.424;2023-11-21T05:56:31;101339.72;;;9.95;100.00
71976;BME280;68326;52.124;5.424;2023-11-21T05:58:58;101347.47;;;9.97;100.00
71976;BME280;68326;52.124;5.424;2023-11-21T06:01:26;101345.91;;;9.93;100.00
71976;BME280;68326;52.124;5.424;2023-11-21T06:03:54;101347.63;;;9.92;100.00
71976;BME280;68326;52.124;5.424;2023-11-21T06:06:23;101348.59;;;9.90;100.00
71976;BME280;68326;52.124;5.424;2023-11-21T06:08:51;101358.94;;;9.91;100.00
71976;BME280;68326;52.124;5.424;2023-11-21T06:11:17;101365.06;;;9.90;100.00
71976;BME280;68326;52.124;5.424;2023-11-21T06:13:44;101370.13;;;9.93;100.00
71976;BME280;68326;52.124;5.424;2023-11-21T06:16:10;101367.59;;;9.92;100.00
71976;BME280;68326;52.124;5.424;2023-11-21T06:18:39;101369.16;;;9.96;100.00
71976;BME280;68326;52.124;5.424;2023-11-21T06:21:09;101375.84;;;10.03;100.00
71976;BME280;68326;52.124;5.424;2023-11-21T06:23:35;101374.84;;;10.06;100.00
71976;BME280;68326;52.124;5.424;2023-11-21T06:26:02;101372.13;;;10.09;100.00
71976;BME280;68326;52.124;5.424;2023-11-21T06:28:30;101379.97;;;10.07;100.00
71976;BME280;68326;52.124;5.424;2023-11-21T06:30:57;101377.22;;;10.12;100.00
71976;BME280;68326;52.124;5.424;2023-11-21T06:33:32;101381.41;;;10.16;100.00
71976;BME280;68326;52.124;5.424;2023-11-21T06:35:58;101383.91;;;10.17;100.00
71976;BME280;68326;52.124;5.424;2023-11-21T06:38:25;101390.63;;;10.23;100.00
71976;BME280;68326;52.124;5.424;2023-11-21T06:40:54;101394.81;;;10.27;100.00
71976;BME280;68326;52.124;5.424;2023-11-21T06:43:21;101386.22;;;10.25;100.00
71976;BME280;68326;52.124;5.424;2023-11-21T06:45:48;101393.09;;;10.26;100.00
71976;BME280;68326;52.124;5.424;2023-11-21T06:48:15;101392.25;;;10.26;100.00
71976;BME280;68326;52.124;5.424;2023-11-21T06:50:41;101400.91;;;10.26;100.00
71976;BME280;68326;52.124;5.424;2023-11-21T06:53:08;101400.84;;;10.28;100.00
71976;BME280;68326;52.124;5.424;2023-11-21T06:55:36;101405.06;;;10.32;100.00
71976;BME280;68326;52.124;5.424;2023-11-21T06:58:02;101401.47;;;10.34;100.00
71976;BME280;68326;52.124;5.424;2023-11-21T07:00:29;101410.06;;;10.36;100.00
71976;BME280;68326;52.124;5.424;2023-11-21T07:02:56;101410.06;;;10.36;100.00
71976;BME280;68326;52.124;5.424;2023-11-21T07:05:22;101416.97;;;10.37;100.00
71976;BME280;68326;52.124;5.424;2023-11-21T07:07:49;101427.25;;;10.40;100.00
71976;BME280;68326;52.124;5.424;2023-11-21T07:10:16;101430.56;;;10.44;100.00
71976;BME280;68326;52.124;5.424;2023-11-21T07:12:43;101428.56;;;10.51;100.00
71976;BME280;68326;52.124;5.424;2023-11-21T07:15:09;101436.25;;;10.54;100.00
71976;BME280;68326;52.124;5.424;2023-11-21T07:17:36;101436.06;;;10.58;100.00
71976;BME280;68326;52.124;5.424;2023-11-21T07:20:07;101443.81;;;10.60;100.00
71976;BME280;68326;52.124;5.424;2023-11-21T07:22:33;101450.56;;;10.64;100.00
71976;BME280;68326;52.124;5.424;2023-11-21T07:25:00;101448.66;;;10.69;100.00
71976;BME280;68326;52.124;5.424;2023-11-21T07:27:26;101457.09;;;10.74;100.00
71976;BME280;68326;52.124;5.424;2023-11-21T07:29:53;101459.75;;;10.73;100.00
71976;BME280;68326;52.124;5.424;2023-11-21T07:32:20;101460.50;;;10.76;100.00
71976;BME280;68326;52.124;5.424;2023-11-21T07:34:47;101463.81;;;10.80;100.00
71976;BME280;68326;52.124;5.424;2023-11-21T07:37:13;101466.28;;;10.83;100.00
71976;BME280;68326;52.124;5.424;2023-11-21T07:39:40;101456.66;;;10.85;100.00
71976;BME280;68326;52.124;5.424;2023-11-21T07:42:08;101461.66;;;10.90;100.00
71976;BME280;68326;52.124;5.424;2023-11-21T07:44:35;101462.44;;;10.92;100.00
71976;BME280;68326;52.124;5.424;2023-11-21T07:47:02;101469.22;;;10.96;100.00
71976;BME280;68326;52.124;5.424;2023-11-21T07:49:28;101466.50;;;10.99;100.00
71976;BME280;68326;52.124;5.424;2023-11-21T07:51:55;101480.31;;;11.01;100.00
71976;BME280;68326;52.124;5.424;2023-11-21T07:54:21;101483.69;;;11.03;100.00
71976;BME280;68326;52.124;5.424;2023-11-21T07:56:48;101488.91;;;11.03;100.00
71976;BME280;68326;52.124;5.424;2023-11-21T07:59:14;101486.16;;;11.06;100.00
71976;BME280;68326;52.124;5.424;2023-11-21T08:01:40;101492.16;;;11.08;100.00
71976;BME280;68326;52.124;5.424;2023-11-21T08:04:09;101495.41;;;11.13;100.00
71976;BME280;68326;52.124;5.424;2023-11-21T08:06:36;101501.28;;;11.18;100.00
71976;BME280;68326;52.124;5.424;2023-11-21T08:09:02;101507.97;;;11.24;100.00
71976;BME280;68326;52.124;5.424;2023-11-21T08:11:29;101507.81;;;11.29;100.00
71976;BME280;68326;52.124;5.424;2023-11-21T08:13:56;101513.66;;;11.34;100.00
71976;BME280;68326;52.124;5.424;2023-11-21T08:16:23;101516.97;;;11.37;100.00
71976;BME280;68326;52.124;5.424;2023-11-21T08:18:50;101526.28;;;11.43;100.00
71976;BME280;68326;52.124;5.424;2023-11-21T08:21:17;101537.47;;;11.45;100.00
71976;BME280;68326;52.124;5.424;2023-11-21T08:23:45;101538.25;;;11.47;100.00
71976;BME280;68326;52.124;5.424;2023-11-21T08:26:11;101540.75;;;11.50;100.00
71976;BME280;68326;52.124;5.424;2023-11-21T08:28:39;101539.81;;;11.51;100.00
71976;BME280;68326;52.124;5.424;2023-11-21T08:31:06;101548.31;;;11.56;100.00
71976;BME280;68326;52.124;5.424;2023-11-21T08:33:33;101549.09;;;11.58;100.00
71976;BME280;68326;52.124;5.424;2023-11-21T08:35:59;101555.16;;;11.59;100.00
71976;BME280;68326;52.124;5.424;2023-11-21T08:38:27;101565.63;;;11.57;100.00
71976;BME280;68326;52.124;5.424;2023-11-21T08:40:55;101571.81;;;11.55;100.00
71976;BME280;68326;52.124;5.424;2023-11-21T08:43:21;101583.09;;;11.55;100.00
71976;BME280;68326;52.124;5.424;2023-11-21T08:45:48;101586.63;;;11.54;100.00
71976;BME280;68326;52.124;5.424;2023-11-21T08:48:15;101590.91;;;11.55;100.00
71976;BME280;68326;52.124;5.424;2023-11-21T08:50:42;101586.47;;;11.57;100.00
71976;BME280;68326;52.124;5.424;2023-11-21T08:53:08;101592.63;;;11.56;100.00
71976;BME280;68326;52.124;5.424;2023-11-21T08:55:37;101600.44;;;11.56;100.00
71976;BME280;68326;52.124;5.424;2023-11-21T08:58:04;101607.28;;;11.59;100.00
71976;BME280;68326;52.124;5.424;2023-11-21T09:00:32;101593.41;;;11.58;100.00
71976;BME280;68326;52.124;5.424;2023-11-21T09:03:01;101595.88;;;11.61;100.00
71976;BME280;68326;52.124;5.424;2023-11-21T09:05:28;101588.00;;;11.63;100.00
71976;BME280;68326;52.124;5.424;2023-11-21T09:07:55;101593.84;;;11.68;100.00
71976;BME280;68326;52.124;5.424;2023-11-21T09:10:21;101603.94;;;11.76;100.00
71976;BME280;68326;52.124;5.424;2023-11-21T09:12:49;101624.41;;;11.85;100.00
71976;BME280;68326;52.124;5.424;2023-11-21T09:15:15;101630.47;;;11.86;100.00
71976;BME280;68326;52.124;5.424;2023-11-21T09:17:42;101629.69;;;11.83;100.00
71976;BME280;68326;52.124;5.424;2023-11-21T09:20:10;101633.28;;;11.81;100.00
71976;BME280;68326;52.124;5.424;2023-11-21T09:22:37;101636.81;;;11.80;100.00
71976;BME280;68326;52.124;5.424;2023-11-21T09:25:04;101634.31;;;11.77;100.00
71976;BME280;68326;52.124;5.424;2023-11-21T09:27:31;101630.75;;;11.79;100.00
71976;BME280;68326;52.124;5.424;2023-11-21T09:29:58;101643.59;;;11.84;100.00
71976;BME280;68326;52.124;5.424;2023-11-21T09:32:24;101645.28;;;11.85;100.00
71976;BME280;68326;52.124;5.424;2023-11-21T09:34:51;101655.06;;;11.80;100.00
71976;BME280;68326;52.124;5.424;2023-11-21T09:37:17;101653.34;;;11.79;100.00
71976;BME280;68326;52.124;5.424;2023-11-21T09:39:45;101659.50;;;11.78;100.00
71976;BME280;68326;52.124;5.424;2023-11-21T09:42:23;101663.72;;;11.80;100.00
71976;BME280;68326;52.124;5.424;2023-11-21T09:47:25;101682.97;;;11.78;100.00
71976;BME280;68326;52.124;5.424;2023-11-21T09:49:54;101684.78;;;11.76;100.00
71976;BME280;68326;52.124;5.424;2023-11-21T09:52:27;101676.97;;;11.76;100.00
71976;BME280;68326;52.124;5.424;2023-11-21T09:54:55;101690.31;;;11.68;100.00
71976;BME280;68326;52.124;5.424;2023-11-21T09:57:25;101692.97;;;11.67;100.00
71976;BME280;68326;52.124;5.424;2023-11-21T09:59:53;101695.53;;;11.68;100.00
71976;BME280;68326;52.124;5.424;2023-11-21T10:02:24;101694.69;;;11.68;100.00
71976;BME280;68326;52.124;5.424;2023-11-21T10:04:53;101695.56;;;11.67;100.00
71976;BME280;68326;52.124;5.424;2023-11-21T10:07:20;101698.19;;;11.67;100.00
71976;BME280;68326;52.124;5.424;2023-11-21T10:09:47;101705.16;;;11.66;100.00
71976;BME280;68326;52.124;5.424;2023-11-21T10:12:16;101701.84;;;11.62;100.00
71976;BME280;68326;52.124;5.424;2023-11-21T10:14:47;101706.19;;;11.62;100.00
71976;BME280;68326;52.124;5.424;2023-11-21T10:17:15;101716.88;;;11.56;100.00
71976;BME280;68326;52.124;5.424;2023-11-21T10:19:48;101720.34;;;11.56;100.00
71976;BME280;68326;52.124;5.424;2023-11-21T10:22:15;101718.59;;;11.57;100.00
71976;BME280;68326;52.124;5.424;2023-11-21T10:24:42;101729.81;;;11.59;100.00
71976;BME280;68326;52.124;5.424;2023-11-21T10:27:19;101738.28;;;11.64;100.00
71976;BME280;68326;52.124;5.424;2023-11-21T10:29:45;101740.78;;;11.67;100.00
71976;BME280;68326;52.124;5.424;2023-11-21T10:32:12;101740.69;;;11.69;100.00
71976;BME280;68326;52.124;5.424;2023-11-21T10:34:38;101742.34;;;11.71;100.00
71976;BME280;68326;52.124;5.424;2023-11-21T10:37:14;101742.94;;;11.78;100.00
71976;BME280;68326;52.124;5.424;2023-11-21T10:39:43;101751.66;;;11.77;100.00
71976;BME280;68326;52.124;5.424;2023-11-21T10:42:11;101759.72;;;11.71;100.00
71976;BME280;68326;52.124;5.424;2023-11-21T10:44:38;101771.19;;;11.67;100.00
71976;BME280;68326;52.124;5.424;2023-11-21T10:47:04;101768.66;;;11.65;100.00
71976;BME280;68326;52.124;5.424;2023-11-21T10:49:31;101780.78;;;11.66;100.00
71976;BME280;68326;52.124;5.424;2023-11-21T10:51:59;101794.00;;;11.61;100.00
71976;BME280;68326;52.124;5.424;2023-11-21T10:54:26;101795.16;;;11.54;100.00
71976;BME280;68326;52.124;5.424;2023-11-21T10:56:57;101803.09;;;11.51;100.00
71976;BME280;68326;52.124;5.424;2023-11-21T10:59:26;101796.19;;;11.50;100.00
71976;BME280;68326;52.124;5.424;2023-11-21T11:01:57;101804.84;;;11.51;100.00
71976;BME280;68326;52.124;5.424;2023-11-21T11:04:27;101808.38;;;11.50;100.00
71976;BME280;68326;52.124;5.424;2023-11-21T11:06:58;101808.38;;;11.50;100.00
71976;BME280;68326;52.124;5.424;2023-11-21T11:09:31;101809.22;;;11.50;100.00
71976;BME280;68326;52.124;5.424;2023-11-21T11:12:03;101808.09;;;11.56;100.00
71976;BME280;68326;52.124;5.424;2023-11-21T11:14:32;101806.47;;;11.53;100.00
71976;BME280;68326;52.124;5.424;2023-11-21T11:16:59;101791.75;;;11.52;100.00
71976;BME280;68326;52.124;5.424;2023-11-21T11:19:28;101800.38;;;11.54;100.00
71976;BME280;68326;52.124;5.424;2023-11-21T11:24:36;101808.47;;;11.47;100.00
71976;BME280;68326;52.124;5.424;2023-11-21T11:30:06;101820.66;;;11.46;100.00
71976;BME280;68326;52.124;5.424;2023-11-21T11:38:52;101820.94;;;11.38;100.00
71976;BME280;68326;52.124;5.424;2023-11-21T11:41:27;101823.28;;;11.46;100.00
71976;BME280;68326;52.124;5.424;2023-11-21T11:43:56;101820.72;;;11.45;100.00
71976;BME280;68326;52.124;5.424;2023-11-21T11:46:40;101829.03;;;11.54;100.00
71976;BME280;68326;52.124;5.424;2023-11-21T11:49:08;101824.00;;;11.50;100.00
71976;BME280;68326;52.124;5.424;2023-11-21T11:51:34;101829.16;;;11.51;100.00
71976;BME280;68326;52.124;5.424;2023-11-21T11:54:05;101839.47;;;11.54;100.00
71976;BME280;68326;52.124;5.424;2023-11-21T11:56:34;101842.19;;;11.51;100.00
71976;BME280;68326;52.124;5.424;2023-11-21T11:59:03;101840.44;;;11.52;100.00
71976;BME280;68326;52.124;5.424;2023-11-21T12:01:32;101849.91;;;11.54;100.00
71976;BME280;68326;52.124;5.424;2023-11-21T12:06:47;101855.91;;;11.56;100.00
71976;BME280;68326;52.124;5.424;2023-11-21T12:09:20;101855.66;;;11.62;100.00
71976;BME280;68326;52.124;5.424;2023-11-21T12:11:48;101859.41;;;11.55;100.00
71976;BME280;68326;52.124;5.424;2023-11-21T12:14:15;101864.66;;;11.54;100.00
71976;BME280;68326;52.124;5.424;2023-11-21T12:16:43;101870.69;;;11.56;100.00
71976;BME280;68326;52.124;5.424;2023-11-21T12:19:10;101872.34;;;11.58;100.00
71976;BME280;68326;52.124;5.424;2023-11-21T12:21:38;101878.41;;;11.59;100.00
71976;BME280;68326;52.124;5.424;2023-11-21T12:24:05;101880.88;;;11.62;100.00
71976;BME280;68326;52.124;5.424;2023-11-21T12:26:35;101877.41;;;11.61;100.00
71976;BME280;68326;52.124;5.424;2023-11-21T12:29:05;101873.94;;;11.62;100.00
71976;BME280;68326;52.124;5.424;2023-11-21T12:31:34;101884.34;;;11.62;100.00
71976;BME280;68326;52.124;5.424;2023-11-21T12:34:01;101878.34;;;11.60;100.00
71976;BME280;68326;52.124;5.424;2023-11-21T12:36:28;101875.97;;;11.54;100.00
71976;BME280;68326;52.124;5.424;2023-11-21T12:38:56;101875.34;;;11.48;100.00
71976;BME280;68326;52.124;5.424;2023-11-21T12:41:23;101876.19;;;11.48;100.00
71976;BME280;68326;52.124;5.424;2023-11-21T12:43:49;101870.94;;;11.50;100.00
71976;BME280;68326;52.124;5.424;2023-11-21T12:46:16;101881.28;;;11.51;100.00
71976;BME280;68326;52.124;5.424;2023-11-21T12:48:44;101887.41;;;11.50;100.00
71976;BME280;68326;52.124;5.424;2023-11-21T12:51:14;101884.84;;;11.49;99.95
71976;BME280;68326;52.124;5.424;2023-11-21T12:53:42;101895.34;;;11.47;100.00
71976;BME280;68326;52.124;5.424;2023-11-21T12:56:13;101903.09;;;11.49;100.00
71976;BME280;68326;52.124;5.424;2023-11-21T12:58:45;101903.91;;;11.51;100.00
71976;BME280;68326;52.124;5.424;2023-11-21T13:01:14;101908.13;;;11.53;100.00
71976;BME280;68326;52.124;5.424;2023-11-21T13:03:48;101907.25;;;11.54;99.90
71976;BME280;68326;52.124;5.424;2023-11-21T13:06:17;101908.13;;;11.53;100.00
71976;BME280;68326;52.124;5.424;2023-11-21T13:08:45;101914.88;;;11.59;99.92